Mere Point, Maine
Current Conditions -  °F | °C
As of 3:53 PM on Friday 19 Dec 2014 (Local Time) from KIWI Reporting Station
Clear Clear  
Wind Chill: 30°   Ceiling: Unl
Heat Index: 34°   Visibility: 10mi
Dew Point: 21°   Wind: 5mph
Humidity: 59%   Direction: 320°NW
Pressure: 29.97"   Gusts: NA
Location:  43.903°N, 69.9809°W
Report Text: KIWI 192053Z AUTO 32004KT 10SM CLR 01/M06 A2997 RMK AO2 SLP151 T00111061 53017
Loading
Personal Weather Stations






























Interactive Weather Map New forecast layout! Learn more

10-Day Weather Forecast

Advertisements
Track Severe Weather on mobile